Time;durP1;ratioP1;P1;durP2;ratioP2;P2;SDS_P1;SDS_P2;PMS_P1;PMS_P2;Temp;Humidity;BMP_temperature;BMP_pressure;BME280_temperature;BME280_humidity;BME280_pressure;Samples;Min_cycle;Max_cycle;Signal;HPM_P1;HPM_P2
2021/09/01 00:01:39;;;;;;;11.73;2.88;;;;;;;;;;5054524;28;20016;-67
2021/09/01 00:04:05;;;;;;;12.98;3.00;;;;;;;;;;5073164;28;20365;-67
2021/09/01 00:06:30;;;;;;;16.55;2.88;;;;;;;;;;5072467;28;20513;-67
2021/09/01 00:08:56;;;;;;;17.25;3.30;;;;;;;;;;5072955;28;20054;-69
2021/09/01 00:11:23;;;;;;;16.63;2.90;;;;;;;;;;5072428;28;20055;-67
2021/09/01 00:13:49;;;;;;;12.68;3.00;;;;;;;;;;5072946;28;20108;-66
2021/09/01 00:16:28;;;;;;;14.10;3.53;;;;;;;;;;5071988;28;20020;-66
2021/09/01 00:18:54;;;;;;;14.68;3.15;;;;;;;;;;5072502;28;20384;-66
2021/09/01 00:21:20;;;;;;;18.20;3.40;;;;;;;;;;5088349;28;20399;-66
2021/09/01 00:23:46;;;;;;;13.60;3.35;;;;;;;;;;5093101;28;20487;-66
2021/09/01 00:26:12;;;;;;;13.93;2.67;;;;;;;;;;5073532;28;20032;-67
2021/09/01 00:28:38;;;;;;;15.00;3.17;;;;;;;;;;5093011;28;20050;-67
2021/09/01 00:31:04;;;;;;;13.10;3.13;;;;;;;;;;5091252;28;20051;-67
2021/09/01 00:33:30;;;;;;;16.40;3.33;;;;;;;;;;5093134;28;20152;-68
2021/09/01 00:35:56;;;;;;;21.70;2.90;;;;;;;;;;5091295;28;20032;-67
2021/09/01 00:38:22;;;;;;;11.57;3.22;;;;;;;;;;5075129;28;20021;-67
2021/09/01 00:40:48;;;;;;;15.23;3.55;;;;;;;;;;5077994;28;20047;-67
2021/09/01 00:43:14;;;;;;;12.48;3.58;;;;;;;;;;5092759;28;20035;-68
2021/09/01 00:45:46;;;;;;;9.13;2.90;;;;;;;;;;5090953;28;20028;-68
2021/09/01 00:48:13;;;;;;;7.97;2.72;;;;;;;;;;5092919;28;20032;-67
2021/09/01 00:50:39;;;;;;;12.48;3.10;;;;;;;;;;5073260;28;20024;-67
2021/09/01 00:53:05;;;;;;;10.23;3.05;;;;;;;;;;5093062;28;20352;-68
2021/09/01 00:55:31;;;;;;;10.32;2.75;;;;;;;;;;5087513;28;20107;-69
2021/09/01 00:57:57;;;;;;;16.27;3.05;;;;;;;;;;5072667;28;20097;-68
2021/09/01 01:00:37;;;;;;;11.23;3.47;;;;;;;;;;5068778;28;20405;-68
2021/09/01 01:03:03;;;;;;;10.20;2.83;;;;;;;;;;5052652;28;20057;-68
2021/09/01 01:05:29;;;;;;;13.57;3.42;;;;;;;;;;5035082;28;20029;-68
2021/09/01 01:07:55;;;;;;;10.90;2.85;;;;;;;;;;5051278;28;20025;-67
2021/09/01 01:10:21;;;;;;;8.98;3.22;;;;;;;;;;5052307;28;20028;-67
2021/09/01 01:12:47;;;;;;;7.65;2.83;;;;;;;;;;5052288;28;20021;-66
2021/09/01 01:15:13;;;;;;;9.00;2.67;;;;;;;;;;5051716;28;20457;-68
2021/09/01 01:17:39;;;;;;;7.53;3.22;;;;;;;;;;5052660;28;20017;-67
2021/09/01 01:20:06;;;;;;;7.53;2.85;;;;;;;;;;5051966;28;20041;-69
2021/09/01 01:22:31;;;;;;;8.85;2.63;;;;;;;;;;5034339;28;20437;-68
2021/09/01 01:24:57;;;;;;;9.80;3.17;;;;;;;;;;5034376;28;20468;-69
2021/09/01 01:27:33;;;;;;;11.38;3.10;;;;;;;;;;5071504;28;20028;-68
2021/09/01 01:30:05;;;;;;;16.95;3.55;;;;;;;;;;5072875;28;20043;-69
2021/09/01 01:32:31;;;;;;;12.27;2.85;;;;;;;;;;5056542;28;20103;-69
2021/09/01 01:34:57;;;;;;;6.78;2.88;;;;;;;;;;5055991;28;20104;-67
2021/09/01 01:37:23;;;;;;;7.53;3.00;;;;;;;;;;5074912;28;20437;-67
2021/09/01 01:39:49;;;;;;;7.82;2.53;;;;;;;;;;5076027;28;20135;-67
2021/09/01 01:42:15;;;;;;;10.27;2.90;;;;;;;;;;5074716;28;20024;-67
2021/09/01 01:44:41;;;;;;;7.63;2.92;;;;;;;;;;5074560;28;20025;-67
2021/09/01 01:47:07;;;;;;;6.93;2.70;;;;;;;;;;5075016;28;20495;-67
2021/09/01 01:49:33;;;;;;;7.00;2.70;;;;;;;;;;5075569;28;20044;-67
2021/09/01 01:51:59;;;;;;;8.48;3.00;;;;;;;;;;5075059;28;20436;-67
2021/09/01 01:54:25;;;;;;;8.60;2.80;;;;;;;;;;5075787;28;20033;-67
2021/09/01 01:56:51;;;;;;;8.40;2.95;;;;;;;;;;5074668;28;20020;-67
2021/09/01 01:59:17;;;;;;;7.45;2.60;;;;;;;;;;5075555;28;20374;-67
2021/09/01 02:01:43;;;;;;;9.10;3.10;;;;;;;;;;5074755;28;20029;-67
2021/09/01 02:04:09;;;;;;;7.50;3.03;;;;;;;;;;5075291;28;20104;-67
2021/09/01 02:06:35;;;;;;;8.77;3.53;;;;;;;;;;5074487;28;20025;-68
2021/09/01 02:09:01;;;;;;;9.00;2.55;;;;;;;;;;5075247;28;20048;-67
2021/09/01 02:11:27;;;;;;;9.85;2.90;;;;;;;;;;5072310;28;20028;-67
2021/09/01 02:13:53;;;;;;;6.32;2.63;;;;;;;;;;5073989;28;20036;-69
2021/09/01 02:16:19;;;;;;;8.50;2.90;;;;;;;;;;5074381;28;20498;-67
2021/09/01 02:18:45;;;;;;;6.72;2.50;;;;;;;;;;5073989;28;20150;-67
2021/09/01 02:21:11;;;;;;;7.88;3.00;;;;;;;;;;5089452;28;20105;-67
2021/09/01 02:23:41;;;;;;;8.18;2.67;;;;;;;;;;5095277;28;20380;-67
2021/09/01 02:26:10;;;;;;;7.43;3.22;;;;;;;;;;5075481;28;20476;-67
2021/09/01 02:28:36;;;;;;;11.13;3.50;;;;;;;;;;5095305;28;20036;-68
2021/09/01 02:31:02;;;;;;;7.53;2.70;;;;;;;;;;5093651;28;20537;-67
2021/09/01 02:33:28;;;;;;;5.35;2.47;;;;;;;;;;5077221;28;20028;-67
2021/09/01 02:35:54;;;;;;;7.28;3.05;;;;;;;;;;5089955;28;20028;-67
2021/09/01 02:38:20;;;;;;;9.88;3.08;;;;;;;;;;5095112;28;20016;-68
2021/09/01 02:40:46;;;;;;;9.70;3.13;;;;;;;;;;5093215;28;20032;-67
2021/09/01 02:43:12;;;;;;;8.88;2.92;;;;;;;;;;5094282;28;20074;-69
2021/09/01 02:45:38;;;;;;;10.98;3.03;;;;;;;;;;5093770;28;20028;-68
2021/09/01 02:48:04;;;;;;;11.63;2.90;;;;;;;;;;5095112;28;20032;-69
2021/09/01 02:50:30;;;;;;;8.23;2.72;;;;;;;;;;5092984;28;20024;-68
2021/09/01 02:52:56;;;;;;;9.30;3.20;;;;;;;;;;5094834;28;20367;-66
2021/09/01 02:55:22;;;;;;;10.02;3.28;;;;;;;;;;5092747;28;20029;-67
2021/09/01 02:57:48;;;;;;;11.57;3.22;;;;;;;;;;5094679;28;20028;-68
2021/09/01 03:00:14;;;;;;;9.65;3.20;;;;;;;;;;5074656;28;20020;-67
2021/09/01 03:02:40;;;;;;;6.97;2.45;;;;;;;;;;5094807;28;20036;-69
2021/09/01 03:05:06;;;;;;;13.43;3.15;;;;;;;;;;5074720;28;20020;-67
2021/09/01 03:07:32;;;;;;;7.07;2.90;;;;;;;;;;5076626;28;20038;-67
2021/09/01 03:09:58;;;;;;;17.73;3.50;;;;;;;;;;5094358;28;20036;-67
2021/09/01 03:12:24;;;;;;;11.35;2.70;;;;;;;;;;5093383;28;20031;-67
2021/09/01 03:14:50;;;;;;;10.55;2.80;;;;;;;;;;5076397;28;20032;-67
2021/09/01 03:17:16;;;;;;;8.20;2.67;;;;;;;;;;5092617;28;20035;-68
2021/09/01 03:19:42;;;;;;;14.20;2.80;;;;;;;;;;5094151;28;20090;-68
2021/09/01 03:22:08;;;;;;;10.02;3.00;;;;;;;;;;5074686;28;20471;-67
2021/09/01 03:24:34;;;;;;;7.85;3.10;;;;;;;;;;5094372;28;20070;-67
2021/09/01 03:27:00;;;;;;;12.13;2.90;;;;;;;;;;5054890;28;20033;-67
2021/09/01 03:29:29;;;;;;;15.32;3.10;;;;;;;;;;5053842;28;20043;-67
2021/09/01 03:31:55;;;;;;;21.60;3.70;;;;;;;;;;5084404;28;20047;-68
2021/09/01 03:34:21;;;;;;;10.20;2.78;;;;;;;;;;5094035;28;20111;-67
2021/09/01 03:36:47;;;;;;;13.68;2.88;;;;;;;;;;5092348;28;20032;-67
2021/09/01 03:39:13;;;;;;;8.48;2.90;;;;;;;;;;5094022;28;20349;-67
2021/09/01 03:41:39;;;;;;;8.07;2.80;;;;;;;;;;5091905;28;20094;-68
2021/09/01 03:44:05;;;;;;;10.57;3.45;;;;;;;;;;5094007;28;20032;-67
2021/09/01 03:46:31;;;;;;;8.43;2.80;;;;;;;;;;5077422;28;20025;-68
2021/09/01 03:48:57;;;;;;;10.02;3.17;;;;;;;;;;5073393;28;20066;-68
2021/09/01 03:51:23;;;;;;;10.25;2.60;;;;;;;;;;5074633;28;20357;-67
2021/09/01 03:53:49;;;;;;;6.47;2.83;;;;;;;;;;5073294;28;20025;-67
2021/09/01 03:56:15;;;;;;;10.40;3.00;;;;;;;;;;5073278;28;20028;-67
2021/09/01 03:58:41;;;;;;;8.45;3.13;;;;;;;;;;5073026;28;20048;-68
2021/09/01 04:01:07;;;;;;;9.25;3.13;;;;;;;;;;5073950;28;20111;-67
2021/09/01 04:03:33;;;;;;;8.82;2.83;;;;;;;;;;5073399;28;20059;-68
2021/09/01 04:05:59;;;;;;;6.90;2.63;;;;;;;;;;5058917;28;20033;-67
2021/09/01 04:08:25;;;;;;;8.70;2.70;;;;;;;;;;5073627;28;20032;-67
2021/09/01 04:10:51;;;;;;;7.65;3.03;;;;;;;;;;5065463;28;20029;-67
2021/09/01 04:13:17;;;;;;;8.25;2.60;;;;;;;;;;5053052;28;20439;-67
2021/09/01 04:15:43;;;;;;;6.80;2.60;;;;;;;;;;5063679;28;20383;-67
2021/09/01 04:18:09;;;;;;;11.85;2.53;;;;;;;;;;5093250;28;20383;-67
2021/09/01 04:20:35;;;;;;;9.43;2.67;;;;;;;;;;5087787;28;20478;-67
2021/09/01 04:23:01;;;;;;;11.07;2.60;;;;;;;;;;5093161;28;20396;-67
2021/09/01 04:25:27;;;;;;;12.45;2.70;;;;;;;;;;5091553;28;20099;-67
2021/09/01 04:27:52;;;;;;;7.75;2.60;;;;;;;;;;5093080;28;20027;-67
2021/09/01 04:30:18;;;;;;;11.50;3.05;;;;;;;;;;5091372;28;20041;-67
2021/09/01 04:32:44;;;;;;;7.25;2.90;;;;;;;;;;5093139;28;20107;-67
2021/09/01 04:35:10;;;;;;;7.70;2.78;;;;;;;;;;5089439;28;20032;-67
2021/09/01 04:37:36;;;;;;;9.95;3.00;;;;;;;;;;5064257;28;20032;-67
2021/09/01 04:40:03;;;;;;;8.23;2.70;;;;;;;;;;5071570;28;20025;-68
2021/09/01 04:42:28;;;;;;;9.07;2.80;;;;;;;;;;5053135;28;20033;-67
2021/09/01 04:44:54;;;;;;;8.05;2.80;;;;;;;;;;5052892;28;20365;-68
2021/09/01 04:47:20;;;;;;;14.35;3.28;;;;;;;;;;5090853;28;20052;-67
2021/09/01 04:49:46;;;;;;;40.55;3.45;;;;;;;;;;5080253;28;20044;-67
2021/09/01 04:52:12;;;;;;;19.83;2.90;;;;;;;;;;5089359;28;20687;-67
2021/09/01 04:54:38;;;;;;;13.10;3.10;;;;;;;;;;5091601;28;20106;-68
2021/09/01 04:57:04;;;;;;;16.20;2.85;;;;;;;;;;5071957;28;20064;-65
2021/09/01 04:59:30;;;;;;;11.13;3.13;;;;;;;;;;5072743;28;20028;-67
2021/09/01 05:01:56;;;;;;;15.85;2.40;;;;;;;;;;5076670;28;20028;-68
2021/09/01 05:04:22;;;;;;;14.77;2.65;;;;;;;;;;5072135;28;20064;-67
2021/09/01 05:06:48;;;;;;;10.43;2.90;;;;;;;;;;5077679;28;20055;-68
2021/09/01 05:09:14;;;;;;;19.65;2.60;;;;;;;;;;5075878;28;20039;-67
2021/09/01 05:11:40;;;;;;;11.07;2.80;;;;;;;;;;5075392;28;20476;-67
2021/09/01 05:14:06;;;;;;;9.73;2.80;;;;;;;;;;5076011;28;20028;-67
2021/09/01 05:16:32;;;;;;;12.82;2.58;;;;;;;;;;5075212;28;20020;-67
2021/09/01 05:18:58;;;;;;;12.77;2.92;;;;;;;;;;5076086;28;20028;-67
2021/09/01 05:21:26;;;;;;;11.93;2.80;;;;;;;;;;5074965;28;20080;-67
2021/09/01 05:23:55;;;;;;;27.83;2.47;;;;;;;;;;5075718;28;20488;-67
2021/09/01 05:26:21;;;;;;;17.95;2.70;;;;;;;;;;5074780;28;20498;-67
2021/09/01 05:28:48;;;;;;;15.65;3.30;;;;;;;;;;5057797;28;20040;-67
2021/09/01 05:31:15;;;;;;;13.90;2.83;;;;;;;;;;5074865;28;20115;-67
2021/09/01 05:33:49;;;;;;;23.15;2.72;;;;;;;;;;5075896;28;20494;-67
2021/09/01 05:36:16;;;;;;;15.13;2.70;;;;;;;;;;5073106;28;20043;-68
2021/09/01 05:38:45;;;;;;;15.82;2.78;;;;;;;;;;5075629;28;20016;-67
2021/09/01 05:41:12;;;;;;;11.90;2.75;;;;;;;;;;5072489;28;20100;-68
2021/09/01 05:43:39;;;;;;;5.18;2.10;;;;;;;;;;5057818;28;20099;-67
2021/09/01 05:46:05;;;;;;;44.38;5.07;;;;;;;;;;5074630;28;20476;-67
2021/09/01 05:48:33;;;;;;;40.30;5.72;;;;;;;;;;5075428;28;20030;-68
2021/09/01 05:50:59;;;;;;;14.55;3.47;;;;;;;;;;5056671;28;20131;-68
2021/09/01 05:53:26;;;;;;;12.45;3.03;;;;;;;;;;5057216;28;20020;-67
2021/09/01 05:55:52;;;;;;;13.10;2.60;;;;;;;;;;5057102;28;20031;-68
2021/09/01 05:58:20;;;;;;;22.85;2.97;;;;;;;;;;5075616;28;20077;-68
2021/09/01 06:00:52;;;;;;;16.17;3.00;;;;;;;;;;5057145;28;20036;-68
2021/09/01 06:03:27;;;;;;;31.02;2.97;;;;;;;;;;5075116;28;20086;-66
2021/09/01 06:05:57;;;;;;;33.53;3.65;;;;;;;;;;5069518;28;20024;-67
2021/09/01 06:08:30;;;;;;;21.27;3.50;;;;;;;;;;5074840;28;20033;-66
2021/09/01 06:10:57;;;;;;;38.28;4.00;;;;;;;;;;5074463;28;20033;-68
2021/09/01 06:13:23;;;;;;;26.05;3.65;;;;;;;;;;5075634;28;20476;-69
2021/09/01 06:15:49;;;;;;;34.47;2.90;;;;;;;;;;5073902;28;20036;-67
2021/09/01 06:18:15;;;;;;;42.50;3.53;;;;;;;;;;5056493;28;20025;-68
2021/09/01 06:20:42;;;;;;;33.92;3.65;;;;;;;;;;5074409;28;20086;-67
2021/09/01 06:23:08;;;;;;;30.60;2.97;;;;;;;;;;5074897;28;20024;-67
2021/09/01 06:25:34;;;;;;;34.47;3.45;;;;;;;;;;5074714;28;20032;-76
2021/09/01 06:28:01;;;;;;;23.50;3.35;;;;;;;;;;5058480;28;20021;-76
2021/09/01 06:30:27;;;;;;;14.40;2.47;;;;;;;;;;5074647;28;20033;-68
2021/09/01 06:32:53;;;;;;;15.95;2.80;;;;;;;;;;5074868;28;20035;-71
2021/09/01 06:35:19;;;;;;;14.60;2.72;;;;;;;;;;5074972;28;20032;-67
2021/09/01 06:37:46;;;;;;;11.35;3.72;;;;;;;;;;5074872;28;20107;-65
2021/09/01 06:40:12;;;;;;;17.27;3.45;;;;;;;;;;5074848;28;20456;-65
2021/09/01 06:42:39;;;;;;;15.63;2.72;;;;;;;;;;5056857;28;20127;-66
2021/09/01 06:45:06;;;;;;;25.50;3.03;;;;;;;;;;5074574;28;20070;-66
2021/09/01 06:47:49;;;;;;;19.60;2.97;;;;;;;;;;5056639;28;20124;-65
2021/09/01 06:50:16;;;;;;;10.20;2.95;;;;;;;;;;5074644;28;20388;-67
2021/09/01 06:52:43;;;;;;;10.00;3.03;;;;;;;;;;5056502;28;20025;-67
2021/09/01 06:55:10;;;;;;;13.20;2.97;;;;;;;;;;5074562;28;20024;-67
2021/09/01 06:57:36;;;;;;;11.00;3.15;;;;;;;;;;5074563;28;20472;-67
2021/09/01 07:00:09;;;;;;;7.97;2.42;;;;;;;;;;5074536;28;20021;-67
2021/09/01 07:02:35;;;;;;;12.10;2.85;;;;;;;;;;5074230;28;20483;-67
2021/09/01 07:05:01;;;;;;;8.55;3.05;;;;;;;;;;5074357;28;20028;-67
2021/09/01 07:07:27;;;;;;;6.07;2.58;;;;;;;;;;5074258;28;20031;-62
2021/09/01 07:09:53;;;;;;;12.18;2.88;;;;;;;;;;5074242;28;20028;-64
2021/09/01 07:12:19;;;;;;;11.07;2.83;;;;;;;;;;5074272;28;20020;-64
2021/09/01 07:14:45;;;;;;;9.80;2.50;;;;;;;;;;5074108;28;20103;-63
2021/09/01 07:17:11;;;;;;;15.57;2.50;;;;;;;;;;5073185;28;20029;-64
2021/09/01 07:19:37;;;;;;;10.60;2.58;;;;;;;;;;5073052;28;20547;-63
2021/09/01 07:22:03;;;;;;;10.02;2.83;;;;;;;;;;5073520;28;20101;-63
2021/09/01 07:24:29;;;;;;;8.40;2.72;;;;;;;;;;5073923;28;20040;-64
2021/09/01 07:26:55;;;;;;;8.13;2.58;;;;;;;;;;5072733;28;20029;-63
2021/09/01 07:29:21;;;;;;;11.27;2.95;;;;;;;;;;5072413;28;20063;-63
2021/09/01 07:31:47;;;;;;;9.95;2.70;;;;;;;;;;5072877;28;20494;-64
2021/09/01 07:34:13;;;;;;;7.70;2.42;;;;;;;;;;5073444;28;20028;-63
2021/09/01 07:36:39;;;;;;;8.98;2.03;;;;;;;;;;5071947;28;20100;-64
2021/09/01 07:39:05;;;;;;;12.63;3.33;;;;;;;;;;5072401;28;20375;-65
2021/09/01 07:41:31;;;;;;;8.48;2.60;;;;;;;;;;5072504;28;20025;-65
2021/09/01 07:43:57;;;;;;;11.15;2.63;;;;;;;;;;5072254;28;20029;-64
2021/09/01 07:46:23;;;;;;;9.32;2.40;;;;;;;;;;5072192;28;20028;-65
2021/09/01 07:48:49;;;;;;;8.82;2.35;;;;;;;;;;5053979;28;20045;-65
2021/09/01 07:51:15;;;;;;;14.15;2.30;;;;;;;;;;5072300;28;20017;-65
2021/09/01 07:53:41;;;;;;;12.93;2.55;;;;;;;;;;5072237;28;20075;-64
2021/09/01 07:56:07;;;;;;;6.47;2.28;;;;;;;;;;5072055;28;20172;-64
2021/09/01 07:58:33;;;;;;;9.05;2.13;;;;;;;;;;5072019;28;20532;-64
2021/09/01 08:01:00;;;;;;;6.93;1.90;;;;;;;;;;5072050;28;20035;-68
2021/09/01 08:03:28;;;;;;;9.15;2.20;;;;;;;;;;5071694;28;20025;-69
2021/09/01 08:05:54;;;;;;;10.38;2.63;;;;;;;;;;5070810;28;20979;-64
2021/09/01 08:08:20;;;;;;;9.80;2.50;;;;;;;;;;5053501;28;20033;-62
2021/09/01 08:10:46;;;;;;;6.40;2.25;;;;;;;;;;5053538;28;20055;-64
2021/09/01 08:13:12;;;;;;;11.32;2.42;;;;;;;;;;5072250;28;20388;-64
2021/09/01 08:15:38;;;;;;;8.57;2.40;;;;;;;;;;5072304;28;20040;-63
2021/09/01 08:18:04;;;;;;;11.35;2.83;;;;;;;;;;5072112;28;20021;-64
2021/09/01 08:20:30;;;;;;;7.43;1.95;;;;;;;;;;5066309;28;20055;-63
2021/09/01 08:22:55;;;;;;;7.15;2.22;;;;;;;;;;5061373;28;20624;-64
2021/09/01 08:25:21;;;;;;;8.35;1.95;;;;;;;;;;5044213;28;20066;-66
2021/09/01 08:27:48;;;;;;;6.85;2.35;;;;;;;;;;5059564;28;20495;-65
2021/09/01 08:30:15;;;;;;;7.95;1.95;;;;;;;;;;5062808;28;20041;-63
2021/09/01 08:32:41;;;;;;;6.80;1.95;;;;;;;;;;5060910;28;20021;-64
2021/09/01 08:35:08;;;;;;;13.38;2.35;;;;;;;;;;5062041;28;20383;-63
2021/09/01 08:37:34;;;;;;;10.40;2.10;;;;;;;;;;5061866;28;20036;-63
2021/09/01 08:40:01;;;;;;;7.65;2.35;;;;;;;;;;5060920;28;20464;-63
2021/09/01 08:42:27;;;;;;;5.85;2.10;;;;;;;;;;5061855;28;20020;-63
2021/09/01 08:44:53;;;;;;;6.50;2.05;;;;;;;;;;5060796;28;20032;-63
2021/09/01 08:47:19;;;;;;;8.15;2.70;;;;;;;;;;5061332;28;20017;-63
2021/09/01 08:49:46;;;;;;;18.38;2.53;;;;;;;;;;5059300;28;20468;-62
2021/09/01 08:52:13;;;;;;;36.00;2.55;;;;;;;;;;5060075;28;20110;-74
2021/09/01 08:54:39;;;;;;;22.92;2.40;;;;;;;;;;5060274;28;20027;-63
2021/09/01 08:57:05;;;;;;;18.98;2.05;;;;;;;;;;5062399;28;20021;-74
2021/09/01 08:59:31;;;;;;;20.55;2.55;;;;;;;;;;5043416;28;20035;-64
2021/09/01 09:01:57;;;;;;;19.23;2.60;;;;;;;;;;5060972;28;20025;-64
2021/09/01 09:04:27;;;;;;;16.08;2.55;;;;;;;;;;5061292;28;20025;-64
2021/09/01 09:06:53;;;;;;;14.00;2.00;;;;;;;;;;5060375;28;20350;-63
2021/09/01 09:09:21;;;;;;;15.77;2.13;;;;;;;;;;5059187;28;20048;-63
2021/09/01 09:11:47;;;;;;;11.75;2.80;;;;;;;;;;5060585;28;20024;-63
2021/09/01 09:14:19;;;;;;;9.82;2.25;;;;;;;;;;5057026;28;20021;-64
2021/09/01 09:16:45;;;;;;;12.32;2.30;;;;;;;;;;5059256;28;20704;-63
2021/09/01 09:19:12;;;;;;;16.15;2.10;;;;;;;;;;5037396;28;20419;-64
2021/09/01 09:21:39;;;;;;;11.43;2.63;;;;;;;;;;5053134;28;20047;-71
2021/09/01 09:24:21;;;;;;;14.43;2.00;;;;;;;;;;5072334;28;20056;-69
2021/09/01 09:26:47;;;;;;;11.10;2.25;;;;;;;;;;5072113;28;20487;-68
2021/09/01 09:29:18;;;;;;;6.72;1.60;;;;;;;;;;5072212;28;20070;-69
2021/09/01 09:31:46;;;;;;;6.10;1.70;;;;;;;;;;5072026;28;20492;-68
2021/09/01 09:34:17;;;;;;;13.68;1.95;;;;;;;;;;5054181;28;20028;-69
2021/09/01 09:36:59;;;;;;;15.60;2.05;;;;;;;;;;5071753;28;20100;-69
2021/09/01 09:39:36;;;;;;;9.88;2.20;;;;;;;;;;5071954;28;20025;-68
2021/09/01 09:42:02;;;;;;;5.28;1.65;;;;;;;;;;5054065;28;20074;-70
2021/09/01 09:44:28;;;;;;;3.75;1.52;;;;;;;;;;5071958;28;20025;-68
2021/09/01 09:46:54;;;;;;;10.73;2.45;;;;;;;;;;5072062;28;20024;-68
2021/09/01 09:49:27;;;;;;;7.18;2.13;;;;;;;;;;5053730;28;20051;-68
2021/09/01 09:51:52;;;;;;;5.13;1.73;;;;;;;;;;5074166;28;20074;-68
2021/09/01 09:54:19;;;;;;;4.55;2.00;;;;;;;;;;5057807;28;20036;-68
2021/09/01 09:56:46;;;;;;;6.13;2.00;;;;;;;;;;5075135;28;20036;-68
2021/09/01 09:59:20;;;;;;;11.60;1.90;;;;;;;;;;5057252;28;20448;-68
2021/09/01 10:01:46;;;;;;;5.82;2.00;;;;;;;;;;5075518;28;20102;-68
2021/09/01 10:04:13;;;;;;;10.18;2.22;;;;;;;;;;5075072;28;20090;-68
2021/09/01 10:06:39;;;;;;;6.32;2.10;;;;;;;;;;5075221;28;20052;-68
2021/09/01 10:09:05;;;;;;;4.95;2.05;;;;;;;;;;5074952;28;20068;-69
2021/09/01 10:11:32;;;;;;;5.70;1.92;;;;;;;;;;5075309;28;20070;-68
2021/09/01 10:13:58;;;;;;;4.30;1.90;;;;;;;;;;5075110;28;20484;-69
2021/09/01 10:16:28;;;;;;;7.28;2.28;;;;;;;;;;5075234;28;20035;-69
2021/09/01 10:18:57;;;;;;;6.65;1.77;;;;;;;;;;5075091;28;20052;-68
2021/09/01 10:21:27;;;;;;;8.70;2.22;;;;;;;;;;5056791;28;20053;-68
2021/09/01 10:23:53;;;;;;;6.63;1.95;;;;;;;;;;5057206;28;20089;-69
2021/09/01 10:26:27;;;;;;;6.47;2.17;;;;;;;;;;5057269;28;20028;-69
2021/09/01 10:28:54;;;;;;;7.60;1.80;;;;;;;;;;5074790;28;20594;-68
2021/09/01 10:31:22;;;;;;;4.72;1.75;;;;;;;;;;5074572;28;20380;-68
2021/09/01 10:33:51;;;;;;;8.95;2.00;;;;;;;;;;5074920;28;20025;-68
2021/09/01 10:36:23;;;;;;;3.95;1.60;;;;;;;;;;5073281;28;20463;-68
2021/09/01 10:38:50;;;;;;;6.18;2.20;;;;;;;;;;5068405;28;20082;-70
2021/09/01 10:41:27;;;;;;;5.75;1.67;;;;;;;;;;5073597;28;20409;-68
2021/09/01 10:43:54;;;;;;;3.67;1.77;;;;;;;;;;5072694;28;20022;-69
2021/09/01 10:46:20;;;;;;;4.80;1.45;;;;;;;;;;5051753;28;20039;-68
2021/09/01 10:49:00;;;;;;;4.05;1.67;;;;;;;;;;5073549;28;20103;-68
2021/09/01 10:51:29;;;;;;;2.53;1.40;;;;;;;;;;5055674;28;20648;-68
2021/09/01 10:54:15;;;;;;;3.15;1.42;;;;;;;;;;5072959;28;20021;-68
2021/09/01 10:56:50;;;;;;;4.50;1.65;;;;;;;;;;5072192;28;20463;-68
2021/09/01 10:59:24;;;;;;;7.00;1.65;;;;;;;;;;5073986;28;20029;-68
2021/09/01 11:02:17;;;;;;;6.55;1.55;;;;;;;;;;5073329;28;20073;-69
2021/09/01 11:04:46;;;;;;;4.37;1.60;;;;;;;;;;5069563;28;20045;-70
2021/09/01 11:07:18;;;;;;;3.33;1.50;;;;;;;;;;5055309;28;20894;-68
2021/09/01 11:09:44;;;;;;;6.90;1.60;;;;;;;;;;5073622;28;20074;-68
2021/09/01 11:12:13;;;;;;;4.88;1.60;;;;;;;;;;5073773;28;20107;-68
2021/09/01 11:14:39;;;;;;;4.65;1.80;;;;;;;;;;5073675;28;20036;-68
2021/09/01 11:17:10;;;;;;;3.72;1.60;;;;;;;;;;5073322;28;20020;-68
2021/09/01 11:19:36;;;;;;;4.13;1.77;;;;;;;;;;5071093;28;20036;-70
2021/09/01 11:22:12;;;;;;;4.18;1.40;;;;;;;;;;5053354;28;20029;-68
2021/09/01 11:24:43;;;;;;;3.25;1.17;;;;;;;;;;5049755;28;20025;-68
2021/09/01 11:27:10;;;;;;;5.68;1.48;;;;;;;;;;5052616;28;20469;-70
2021/09/01 11:29:36;;;;;;;3.72;1.30;;;;;;;;;;5035374;28;20052;-68
2021/09/01 11:32:02;;;;;;;4.30;1.55;;;;;;;;;;5053288;28;20044;-69
2021/09/01 11:34:28;;;;;;;4.72;1.40;;;;;;;;;;5053156;28;20104;-68
2021/09/01 11:36:54;;;;;;;7.60;1.38;;;;;;;;;;5053006;28;20413;-69
2021/09/01 11:39:20;;;;;;;3.78;1.60;;;;;;;;;;5052897;28;20021;-68
2021/09/01 11:41:47;;;;;;;4.57;1.55;;;;;;;;;;5053016;28;20029;-69
2021/09/01 11:44:14;;;;;;;3.17;1.33;;;;;;;;;;5035038;28;20078;-68
2021/09/01 11:46:40;;;;;;;3.55;1.30;;;;;;;;;;5053043;28;20021;-68
2021/09/01 11:49:13;;;;;;;1.85;1.30;;;;;;;;;;5053114;28;20112;-69
2021/09/01 11:51:40;;;;;;;2.60;1.20;;;;;;;;;;5035552;28;20043;-69
2021/09/01 11:54:08;;;;;;;2.83;1.40;;;;;;;;;;5053493;28;20025;-68
2021/09/01 11:56:34;;;;;;;3.05;1.50;;;;;;;;;;5053653;28;20028;-68
2021/09/01 11:59:01;;;;;;;3.75;1.33;;;;;;;;;;5035821;28;20071;-68
2021/09/01 12:01:28;;;;;;;4.30;1.10;;;;;;;;;;5053382;28;20040;-68
2021/09/01 12:03:55;;;;;;;3.05;1.55;;;;;;;;;;5053399;28;20025;-68
2021/09/01 12:06:21;;;;;;;2.92;1.40;;;;;;;;;;5053402;28;20051;-68
2021/09/01 12:08:49;;;;;;;2.97;1.30;;;;;;;;;;5053384;28;20040;-68
2021/09/01 12:11:15;;;;;;;3.38;1.23;;;;;;;;;;5053115;28;20036;-68
2021/09/01 12:13:43;;;;;;;3.13;1.40;;;;;;;;;;5053098;28;20044;-68
2021/09/01 12:16:09;;;;;;;7.68;1.80;;;;;;;;;;5052311;28;20491;-68
2021/09/01 12:18:51;;;;;;;1.98;1.30;;;;;;;;;;5053172;28;20078;-69
2021/09/01 12:21:18;;;;;;;2.60;1.25;;;;;;;;;;5069259;28;20531;-68
2021/09/01 12:23:44;;;;;;;3.40;1.50;;;;;;;;;;5073365;28;20028;-69
2021/09/01 12:26:10;;;;;;;2.70;1.50;;;;;;;;;;5073191;28;20028;-68
2021/09/01 12:28:46;;;;;;;2.05;1.17;;;;;;;;;;5072879;28;20036;-68
2021/09/01 12:31:20;;;;;;;2.53;1.15;;;;;;;;;;5072944;28;20028;-68
2021/09/01 12:33:46;;;;;;;3.78;1.20;;;;;;;;;;5072760;28;20029;-68
2021/09/01 12:36:12;;;;;;;2.47;1.10;;;;;;;;;;5073045;28;20031;-68
2021/09/01 12:38:38;;;;;;;3.72;1.20;;;;;;;;;;5072862;28;20480;-68
2021/09/01 12:41:19;;;;;;;2.38;1.30;;;;;;;;;;5072863;28;20376;-70
2021/09/01 12:43:46;;;;;;;1.77;1.25;;;;;;;;;;5055034;28;20031;-69
2021/09/01 12:46:12;;;;;;;4.18;1.30;;;;;;;;;;5072914;28;20017;-69
2021/09/01 12:48:42;;;;;;;6.82;1.30;;;;;;;;;;5072554;28;20391;-69
2021/09/01 12:51:11;;;;;;;2.90;1.25;;;;;;;;;;5054607;28;20029;-68
2021/09/01 12:53:37;;;;;;;4.25;1.48;;;;;;;;;;5072884;28;20041;-69
2021/09/01 12:56:03;;;;;;;4.00;1.05;;;;;;;;;;5072795;28;20107;-69
2021/09/01 12:58:29;;;;;;;3.33;1.30;;;;;;;;;;5072670;28;20031;-68
2021/09/01 13:00:55;;;;;;;3.00;1.35;;;;;;;;;;5072880;28;20111;-68
2021/09/01 13:03:21;;;;;;;3.50;1.10;;;;;;;;;;5072614;28;20021;-68
2021/09/01 13:05:48;;;;;;;3.28;1.40;;;;;;;;;;5072859;28;20060;-69
2021/09/01 13:08:15;;;;;;;3.60;1.20;;;;;;;;;;5072673;28;20072;-68
2021/09/01 13:10:40;;;;;;;2.50;1.38;;;;;;;;;;5072635;28;20410;-68
2021/09/01 13:13:07;;;;;;;2.40;1.20;;;;;;;;;;5072712;28;20468;-68
2021/09/01 13:15:33;;;;;;;5.57;1.60;;;;;;;;;;5072656;28;20024;-68
2021/09/01 13:17:59;;;;;;;2.63;1.27;;;;;;;;;;5072321;28;20055;-68
2021/09/01 13:20:27;;;;;;;1.67;1.08;;;;;;;;;;5063092;28;20085;-69
2021/09/01 13:22:53;;;;;;;2.20;1.30;;;;;;;;;;5052594;28;20107;-68
2021/09/01 13:25:19;;;;;;;5.05;1.70;;;;;;;;;;5052413;28;20021;-68
2021/09/01 13:27:46;;;;;;;1.10;0.90;;;;;;;;;;5038217;28;20021;-68
2021/09/01 13:30:12;;;;;;;6.47;1.55;;;;;;;;;;5056384;28;20039;-68
2021/09/01 13:32:38;;;;;;;4.20;1.58;;;;;;;;;;5056283;28;20021;-68
2021/09/01 13:35:05;;;;;;;4.22;1.52;;;;;;;;;;5056016;28;20029;-69
2021/09/01 13:37:31;;;;;;;5.15;1.88;;;;;;;;;;5056080;28;20025;-68
2021/09/01 13:39:57;;;;;;;4.82;1.50;;;;;;;;;;5056041;28;20476;-69
2021/09/01 13:42:23;;;;;;;5.50;1.42;;;;;;;;;;5056166;28;20039;-68
2021/09/01 13:44:49;;;;;;;3.33;1.70;;;;;;;;;;5056067;28;20056;-68
2021/09/01 13:47:15;;;;;;;4.25;1.70;;;;;;;;;;5055836;28;20036;-68
2021/09/01 13:49:41;;;;;;;5.88;2.35;;;;;;;;;;5055719;28;20385;-68
2021/09/01 13:52:07;;;;;;;4.70;1.75;;;;;;;;;;5055920;28;20104;-68
2021/09/01 13:54:33;;;;;;;3.95;2.30;;;;;;;;;;5055824;28;20032;-68
2021/09/01 13:57:00;;;;;;;3.53;2.03;;;;;;;;;;5054632;28;20100;-69
2021/09/01 13:59:31;;;;;;;5.55;2.03;;;;;;;;;;5054598;28;20088;-71
2021/09/01 14:01:57;;;;;;;3.05;2.17;;;;;;;;;;5036578;28;20052;-68
2021/09/01 14:04:23;;;;;;;4.45;2.08;;;;;;;;;;5054856;28;20122;-68
2021/09/01 14:06:49;;;;;;;3.97;2.30;;;;;;;;;;5037229;28;20032;-68
2021/09/01 14:09:15;;;;;;;4.38;2.10;;;;;;;;;;5054816;28;20029;-63
2021/09/01 14:11:43;;;;;;;4.63;2.20;;;;;;;;;;5054950;28;20358;-64
2021/09/01 14:14:09;;;;;;;4.88;2.08;;;;;;;;;;5054926;28;20437;-64
2021/09/01 14:16:35;;;;;;;4.38;2.58;;;;;;;;;;5036679;28;20017;-64
2021/09/01 14:19:02;;;;;;;7.70;2.97;;;;;;;;;;5054548;28;20033;-65
2021/09/01 14:21:28;;;;;;;5.60;2.67;;;;;;;;;;5051292;28;20142;-64
2021/09/01 14:23:54;;;;;;;8.05;3.17;;;;;;;;;;5074384;28;20025;-65
2021/09/01 14:26:21;;;;;;;6.25;2.90;;;;;;;;;;5074658;28;20460;-64
2021/09/01 14:28:47;;;;;;;6.72;2.80;;;;;;;;;;5074288;28;20035;-66
2021/09/01 14:31:13;;;;;;;9.93;3.22;;;;;;;;;;5074315;28;20024;-64
2021/09/01 14:33:39;;;;;;;8.52;3.88;;;;;;;;;;5072737;28;20368;-63
2021/09/01 14:36:06;;;;;;;7.85;3.50;;;;;;;;;;5074295;28;20082;-64
2021/09/01 14:38:32;;;;;;;6.90;3.75;;;;;;;;;;5072750;28;20036;-64